Time;durP1;ratioP1;P1;durP2;ratioP2;P2;SDS_P1;SDS_P2;PMS_P1;PMS_P2;Temp;Humidity;BMP_temperature;BMP_pressure;BME280_temperature;BME280_humidity;BME280_pressure;Samples;Min_cycle;Max_cycle;Signal;HPM_P1;HPM_P2
2024/02/29 00:01:51;;;;;;;18.77;9.25;;;;;;;;;;5011541;28;20036;-68
2024/02/29 00:06:43;;;;;;;19.10;8.32;;;;;;;;;;5022085;22;20053;-89
2024/02/29 00:09:09;;;;;;;15.65;5.88;;;;;;;;;;5011216;28;20026;-88
2024/02/29 00:11:35;;;;;;;13.75;5.07;;;;;;;;;;5013590;28;20036;-89
2024/02/29 00:14:01;;;;;;;15.60;5.32;;;;;;;;;;5002878;28;20029;-87
2024/02/29 00:16:28;;;;;;;13.93;5.28;;;;;;;;;;5011011;28;20086;-88
2024/02/29 00:18:54;;;;;;;13.30;4.32;;;;;;;;;;5012652;28;20064;-88
2024/02/29 00:21:20;;;;;;;14.00;4.50;;;;;;;;;;5007236;28;20033;-88
2024/02/29 00:23:46;;;;;;;;;;;;;;;;;;5014013;28;20033;-88
2024/02/29 00:26:16;;;;;;;12.32;4.20;;;;;;;;;;5021247;28;19920;-88
2024/02/29 00:28:42;;;;;;;16.92;6.95;;;;;;;;;;5010208;28;20033;-90
2024/02/29 00:31:08;;;;;;;20.00;7.95;;;;;;;;;;4988571;28;20130;-91
2024/02/29 00:33:34;;;;;;;;;;;;;;;;;;4993710;28;20034;-88
2024/02/29 00:36:00;;;;;;;15.05;5.10;;;;;;;;;;5006348;28;19931;-87
2024/02/29 00:38:26;;;;;;;13.63;5.28;;;;;;;;;;4993692;28;20017;-89
2024/02/29 00:40:52;;;;;;;25.33;13.88;;;;;;;;;;4995722;28;20040;-88
2024/02/29 00:43:19;;;;;;;31.70;19.05;;;;;;;;;;4993033;28;20072;-86
2024/02/29 00:45:45;;;;;;;14.20;5.82;;;;;;;;;;5007507;28;20038;-88
2024/02/29 00:48:11;;;;;;;14.95;5.13;;;;;;;;;;4989197;28;20103;-88
2024/02/29 00:50:38;;;;;;;18.83;8.07;;;;;;;;;;5007590;28;20090;-89
2024/02/29 00:53:04;;;;;;;27.27;15.38;;;;;;;;;;4990133;28;20030;-86
2024/02/29 00:55:30;;;;;;;14.88;6.57;;;;;;;;;;4996240;28;20091;-86
2024/02/29 00:57:56;;;;;;;15.63;4.70;;;;;;;;;;5011209;28;20792;-86
2024/02/29 01:00:22;;;;;;;14.95;4.50;;;;;;;;;;5011258;28;20017;-85
2024/02/29 01:02:48;;;;;;;14.10;4.18;;;;;;;;;;5015437;28;20652;-86
2024/02/29 01:05:15;;;;;;;16.00;5.22;;;;;;;;;;4997958;28;20056;-86
2024/02/29 01:07:41;;;;;;;18.88;5.15;;;;;;;;;;4992823;28;20026;-86
2024/02/29 01:10:13;;;;;;;17.60;5.95;;;;;;;;;;4989443;28;20949;-86
2024/02/29 01:12:41;;;;;;;19.75;7.13;;;;;;;;;;4994402;28;20556;-86
2024/02/29 01:15:08;;;;;;;14.70;5.97;;;;;;;;;;4993852;28;20092;-86
2024/02/29 01:17:34;;;;;;;19.85;6.25;;;;;;;;;;4988898;28;20038;-86
2024/02/29 01:20:00;;;;;;;13.88;4.80;;;;;;;;;;4994861;28;20038;-86
2024/02/29 01:22:26;;;;;;;13.95;4.13;;;;;;;;;;4990401;28;20064;-86
2024/02/29 01:24:52;;;;;;;15.77;4.43;;;;;;;;;;4991777;28;20033;-85
2024/02/29 01:27:18;;;;;;;19.45;8.20;;;;;;;;;;4989061;28;21019;-86
2024/02/29 01:29:44;;;;;;;24.17;11.70;;;;;;;;;;4992022;28;20036;-86
2024/02/29 01:32:10;;;;;;;;;;;;;;;;;;4988449;28;20489;-86
2024/02/29 01:34:36;;;;;;;32.65;20.65;;;;;;;;;;4997763;28;19928;-86
2024/02/29 01:37:04;;;;;;;38.58;26.73;;;;;;;;;;4992291;28;20034;-86
2024/02/29 01:39:30;;;;;;;25.50;15.27;;;;;;;;;;4995666;28;20704;-87
2024/02/29 01:41:56;;;;;;;21.90;8.00;;;;;;;;;;5007595;28;20876;-86
2024/02/29 01:44:23;;;;;;;35.47;23.10;;;;;;;;;;4992902;28;20045;-85
2024/02/29 01:46:49;;;;;;;58.80;43.38;;;;;;;;;;4987805;28;20061;-86
2024/02/29 01:49:16;;;;;;;28.05;15.10;;;;;;;;;;4990021;28;20829;-85
2024/02/29 01:51:43;;;;;;;32.92;19.05;;;;;;;;;;4997710;28;20044;-86
2024/02/29 01:54:09;;;;;;;15.02;5.90;;;;;;;;;;4993674;28;20406;-86
2024/02/29 01:56:35;;;;;;;15.20;6.32;;;;;;;;;;4994309;28;20026;-86
2024/02/29 01:59:02;;;;;;;15.38;4.63;;;;;;;;;;4990223;28;20496;-87
2024/02/29 02:01:29;;;;;;;16.15;7.93;;;;;;;;;;5011125;28;20029;-87
2024/02/29 02:03:55;;;;;;;17.05;6.75;;;;;;;;;;4992021;28;20359;-87
2024/02/29 02:06:21;;;;;;;34.30;17.65;;;;;;;;;;4990435;28;20049;-87
2024/02/29 02:08:47;;;;;;;34.40;15.23;;;;;;;;;;4987459;28;20267;-84
2024/02/29 02:11:14;;;;;;;24.73;11.13;;;;;;;;;;4990162;28;20030;-84
2024/02/29 02:13:40;;;;;;;18.08;5.85;;;;;;;;;;5004078;28;20037;-85
2024/02/29 02:16:07;;;;;;;15.52;5.68;;;;;;;;;;5003295;28;20033;-85
2024/02/29 02:18:33;;;;;;;16.08;5.95;;;;;;;;;;4982719;28;20041;-84
2024/02/29 02:21:00;;;;;;;33.08;13.43;;;;;;;;;;5003268;28;20033;-86
2024/02/29 02:23:26;;;;;;;23.73;9.45;;;;;;;;;;4982798;28;20044;-86
2024/02/29 02:25:57;;;;;;;39.78;20.08;;;;;;;;;;4986708;28;20111;-85
2024/02/29 02:28:23;;;;;;;104.13;69.75;;;;;;;;;;5010409;28;20029;-85
2024/02/29 02:30:49;;;;;;;;;;;;;;;;;;4988865;28;20040;-83
2024/02/29 02:33:15;;;;;;;18.20;9.10;;;;;;;;;;5004424;28;19916;-84
2024/02/29 02:35:42;;;;;;;17.80;6.22;;;;;;;;;;4987625;28;20168;-85
2024/02/29 02:38:08;;;;;;;10.10;3.28;;;;;;;;;;5004054;28;20029;-84
2024/02/29 02:40:37;;;;;;;9.90;2.20;;;;;;;;;;4989264;28;20048;-84
2024/02/29 02:43:03;;;;;;;8.15;1.88;;;;;;;;;;4988547;28;20129;-84
2024/02/29 02:45:29;;;;;;;12.60;1.92;;;;;;;;;;4988634;28;20036;-84
2024/02/29 02:47:55;;;;;;;9.63;2.00;;;;;;;;;;4986302;28;20039;-84
2024/02/29 02:50:21;;;;;;;;;;;;;;;;;;4990144;28;20410;-83
2024/02/29 02:52:48;;;;;;;9.27;1.98;;;;;;;;;;4987482;28;20476;-84
2024/02/29 02:55:14;;;;;;;12.88;2.08;;;;;;;;;;4999841;28;20048;-84
2024/02/29 02:57:40;;;;;;;10.02;2.30;;;;;;;;;;4999596;28;20153;-83
2024/02/29 03:00:10;;;;;;;9.43;1.63;;;;;;;;;;5004064;28;20026;-83
2024/02/29 03:02:36;;;;;;;10.00;2.22;;;;;;;;;;5004408;28;20152;-83
2024/02/29 03:05:02;;;;;;;10.70;2.10;;;;;;;;;;4981793;28;20718;-82
2024/02/29 03:07:28;;;;;;;10.57;2.40;;;;;;;;;;5003977;28;20026;-83
2024/02/29 03:09:54;;;;;;;9.48;2.10;;;;;;;;;;4983962;28;20718;-83
2024/02/29 03:12:20;;;;;;;12.48;2.38;;;;;;;;;;4998542;28;20037;-83
2024/02/29 03:14:46;;;;;;;9.57;2.15;;;;;;;;;;4985027;28;20836;-85
2024/02/29 03:17:12;;;;;;;8.20;1.85;;;;;;;;;;5001317;28;20032;-83
2024/02/29 03:19:39;;;;;;;9.55;2.10;;;;;;;;;;4989360;28;20095;-84
2024/02/29 03:22:06;;;;;;;10.95;2.15;;;;;;;;;;4980897;28;20029;-83
2024/02/29 03:24:32;;;;;;;11.23;2.03;;;;;;;;;;4981784;28;20068;-83
2024/02/29 03:26:58;;;;;;;14.32;2.15;;;;;;;;;;5000239;28;20041;-83
2024/02/29 03:29:24;;;;;;;10.27;2.20;;;;;;;;;;4988403;28;20025;-82
2024/02/29 03:31:50;;;;;;;7.47;1.75;;;;;;;;;;4995623;28;20492;-83
2024/02/29 03:34:16;;;;;;;10.88;2.10;;;;;;;;;;4987093;28;20636;-83
2024/02/29 03:36:42;;;;;;;7.68;1.73;;;;;;;;;;4989465;28;20473;-81
2024/02/29 03:39:08;;;;;;;9.57;1.98;;;;;;;;;;4988146;28;20030;-85
2024/02/29 03:41:34;;;;;;;8.95;1.88;;;;;;;;;;5001171;28;20026;-84
2024/02/29 03:44:00;;;;;;;10.07;1.98;;;;;;;;;;4984913;28;20041;-84
2024/02/29 03:46:27;;;;;;;10.40;2.33;;;;;;;;;;4999364;28;20033;-84
2024/02/29 03:48:53;;;;;;;;;;;;;;;;;;4986046;28;20038;-84
2024/02/29 03:51:19;;;;;;;8.10;2.00;;;;;;;;;;4991282;28;20724;-84
2024/02/29 03:53:45;;;;;;;9.82;2.10;;;;;;;;;;4984936;28;20854;-83
2024/02/29 03:56:11;;;;;;;7.00;1.85;;;;;;;;;;4999835;28;20722;-84
2024/02/29 03:58:38;;;;;;;10.00;2.13;;;;;;;;;;5006767;28;20081;-84
2024/02/29 04:01:05;;;;;;;6.45;1.70;;;;;;;;;;4984653;28;20034;-84
2024/02/29 04:03:31;;;;;;;;;;;;;;;;;;4981773;28;20044;-83
2024/02/29 04:05:57;;;;;;;8.30;1.88;;;;;;;;;;4981343;28;19925;-83
2024/02/29 04:08:23;;;;;;;9.75;1.70;;;;;;;;;;5001700;28;20113;-83
2024/02/29 04:10:50;;;;;;;8.30;1.77;;;;;;;;;;5001973;28;20052;-84
2024/02/29 04:13:17;;;;;;;7.38;1.92;;;;;;;;;;4986333;28;20125;-84
2024/02/29 04:15:44;;;;;;;8.88;1.77;;;;;;;;;;4999319;28;20037;-84
2024/02/29 04:18:10;;;;;;;7.47;1.80;;;;;;;;;;4982087;28;20038;-84
2024/02/29 04:20:36;;;;;;;6.88;1.90;;;;;;;;;;4985205;28;20025;-84
2024/02/29 04:23:02;;;;;;;8.23;1.98;;;;;;;;;;4988681;28;20038;-84
2024/02/29 04:25:28;;;;;;;5.97;1.70;;;;;;;;;;4987659;28;20025;-84
2024/02/29 04:27:54;;;;;;;6.45;1.95;;;;;;;;;;5000775;28;20038;-83
2024/02/29 04:30:20;;;;;;;9.32;3.17;;;;;;;;;;4985664;28;20032;-83
2024/02/29 04:32:47;;;;;;;9.10;2.20;;;;;;;;;;4991292;28;20034;-85
2024/02/29 04:35:13;;;;;;;8.32;1.98;;;;;;;;;;5007339;28;20094;-85
2024/02/29 04:37:39;;;;;;;9.23;2.10;;;;;;;;;;4991910;28;20038;-83
2024/02/29 04:40:07;;;;;;;8.35;1.77;;;;;;;;;;5005249;28;20793;-83
2024/02/29 04:42:33;;;;;;;8.50;2.00;;;;;;;;;;4992209;28;20144;-84
2024/02/29 04:44:59;;;;;;;9.07;2.10;;;;;;;;;;5005833;28;20034;-85
2024/02/29 04:47:25;;;;;;;11.20;2.13;;;;;;;;;;4989397;28;20030;-83
2024/02/29 04:49:51;;;;;;;9.75;1.90;;;;;;;;;;4984629;28;20033;-84
2024/02/29 04:52:18;;;;;;;7.97;2.17;;;;;;;;;;4988826;28;20402;-84
2024/02/29 04:54:44;;;;;;;7.00;1.88;;;;;;;;;;5003650;28;20033;-82
2024/02/29 04:57:10;;;;;;;8.80;2.00;;;;;;;;;;4984410;28;20079;-84
2024/02/29 04:59:36;;;;;;;10.25;2.13;;;;;;;;;;4988505;28;20041;-83
2024/02/29 05:02:02;;;;;;;7.78;2.05;;;;;;;;;;4997182;28;20132;-83
2024/02/29 05:04:29;;;;;;;8.32;2.00;;;;;;;;;;4983493;28;20041;-83
2024/02/29 05:06:56;;;;;;;10.48;2.20;;;;;;;;;;4979336;28;20041;-83
2024/02/29 05:09:22;;;;;;;7.30;1.95;;;;;;;;;;5002995;28;20506;-83
2024/02/29 05:11:48;;;;;;;7.50;1.70;;;;;;;;;;4984868;28;20109;-84
2024/02/29 05:14:15;;;;;;;9.50;2.42;;;;;;;;;;4985494;28;20034;-84
2024/02/29 05:16:41;;;;;;;9.15;2.50;;;;;;;;;;4988862;28;20026;-83
2024/02/29 05:19:07;;;;;;;9.63;2.50;;;;;;;;;;4983947;28;20049;-84
2024/02/29 05:21:33;;;;;;;9.02;2.33;;;;;;;;;;4988562;28;20029;-83
2024/02/29 05:23:59;;;;;;;9.48;2.45;;;;;;;;;;4988943;28;20033;-84
2024/02/29 05:26:25;;;;;;;9.85;2.20;;;;;;;;;;5003159;28;20032;-83
2024/02/29 05:28:53;;;;;;;9.02;2.55;;;;;;;;;;4983483;28;20036;-83
2024/02/29 05:31:20;;;;;;;10.02;2.90;;;;;;;;;;4999071;28;20030;-84
2024/02/29 05:33:46;;;;;;;10.48;3.75;;;;;;;;;;5005118;28;20039;-83
2024/02/29 05:36:14;;;;;;;10.68;3.92;;;;;;;;;;5000704;28;20033;-84
2024/02/29 05:38:41;;;;;;;12.43;3.40;;;;;;;;;;5005994;28;20032;-84
2024/02/29 05:41:07;;;;;;;11.20;3.33;;;;;;;;;;5002029;28;20025;-84
2024/02/29 05:43:34;;;;;;;9.85;3.55;;;;;;;;;;4987145;28;20033;-83
2024/02/29 05:46:00;;;;;;;11.10;2.97;;;;;;;;;;4986433;28;20048;-84
2024/02/29 05:48:26;;;;;;;10.23;2.92;;;;;;;;;;4990500;28;20113;-83
2024/02/29 05:50:52;;;;;;;10.27;3.33;;;;;;;;;;4987128;28;20034;-83
2024/02/29 05:53:18;;;;;;;9.95;3.08;;;;;;;;;;4980637;28;20056;-83
2024/02/29 05:55:44;;;;;;;11.88;4.15;;;;;;;;;;5004383;28;20034;-84
2024/02/29 05:58:10;;;;;;;12.85;4.40;;;;;;;;;;5000802;28;20965;-83
2024/02/29 06:00:36;;;;;;;9.60;3.40;;;;;;;;;;4987943;28;20052;-84
2024/02/29 06:03:03;;;;;;;12.75;3.53;;;;;;;;;;4985810;28;20137;-83
2024/02/29 06:05:30;;;;;;;9.43;3.42;;;;;;;;;;5003624;28;20068;-83
2024/02/29 06:07:57;;;;;;;10.43;3.03;;;;;;;;;;4999730;28;20822;-84
2024/02/29 06:10:23;;;;;;;9.88;3.08;;;;;;;;;;4987146;28;20025;-83
2024/02/29 06:12:49;;;;;;;9.63;3.20;;;;;;;;;;4986351;28;20050;-84
2024/02/29 06:15:15;;;;;;;9.20;2.60;;;;;;;;;;5002141;28;20620;-83
2024/02/29 06:17:41;;;;;;;9.75;3.13;;;;;;;;;;4984649;28;20029;-83
2024/02/29 06:20:10;;;;;;;10.60;3.08;;;;;;;;;;4997500;28;21543;-84
2024/02/29 06:22:36;;;;;;;8.48;2.83;;;;;;;;;;4983386;28;20045;-83
2024/02/29 06:25:04;;;;;;;11.07;3.30;;;;;;;;;;4980702;28;20898;-83
2024/02/29 06:27:30;;;;;;;10.85;3.63;;;;;;;;;;4985613;28;20041;-83
2024/02/29 06:29:56;;;;;;;15.48;4.20;;;;;;;;;;4999922;28;20156;-84
2024/02/29 06:32:22;;;;;;;11.63;4.05;;;;;;;;;;4986676;28;20345;-84
2024/02/29 06:34:49;;;;;;;9.93;3.80;;;;;;;;;;5018575;28;20044;-84
2024/02/29 06:37:15;;;;;;;9.40;3.28;;;;;;;;;;5006392;28;20033;-83
2024/02/29 06:39:41;;;;;;;12.82;3.83;;;;;;;;;;5007112;28;20026;-83
2024/02/29 06:42:07;;;;;;;9.20;3.28;;;;;;;;;;4987056;28;20388;-84
2024/02/29 06:44:34;;;;;;;11.50;4.55;;;;;;;;;;4992938;28;20405;-84
2024/02/29 06:47:00;;;;;;;11.20;4.45;;;;;;;;;;4986083;28;20025;-83
2024/02/29 06:49:26;;;;;;;11.60;3.78;;;;;;;;;;4988936;28;20171;-84
2024/02/29 06:51:52;;;;;;;10.80;3.72;;;;;;;;;;4997771;28;20030;-84
2024/02/29 06:54:18;;;;;;;13.50;4.45;;;;;;;;;;5004041;28;20030;-83
2024/02/29 06:56:45;;;;;;;8.80;3.13;;;;;;;;;;4983238;28;20030;-84
2024/02/29 06:59:11;;;;;;;10.60;3.65;;;;;;;;;;4995665;28;20807;-84
2024/02/29 07:01:37;;;;;;;10.27;3.60;;;;;;;;;;4983781;28;20030;-85
2024/02/29 07:04:04;;;;;;;10.15;3.78;;;;;;;;;;4997070;28;20045;-84
2024/02/29 07:06:30;;;;;;;;;;;;;;;;;;4980645;28;20068;-84
2024/02/29 07:08:56;;;;;;;9.15;3.10;;;;;;;;;;4998193;28;19913;-84
2024/02/29 07:11:22;;;;;;;9.77;2.75;;;;;;;;;;4980093;28;20060;-83
2024/02/29 07:13:49;;;;;;;7.00;2.25;;;;;;;;;;4983121;28;20033;-84
2024/02/29 07:16:15;;;;;;;9.40;2.85;;;;;;;;;;4982848;28;20026;-83
2024/02/29 07:18:41;;;;;;;8.07;2.72;;;;;;;;;;5000251;28;20021;-83
2024/02/29 07:21:07;;;;;;;9.80;3.47;;;;;;;;;;4977821;28;21047;-84
2024/02/29 07:23:36;;;;;;;10.85;4.25;;;;;;;;;;4986920;28;20034;-83
2024/02/29 07:26:03;;;;;;;10.52;3.80;;;;;;;;;;4980719;28;20063;-83
2024/02/29 07:28:29;;;;;;;10.35;3.67;;;;;;;;;;4991118;28;20681;-84
2024/02/29 07:30:56;;;;;;;12.75;3.55;;;;;;;;;;4999694;28;20029;-84
2024/02/29 07:33:22;;;;;;;10.13;3.42;;;;;;;;;;5001550;28;20021;-85
2024/02/29 07:35:48;;;;;;;9.48;3.20;;;;;;;;;;4983710;28;20123;-85
2024/02/29 07:38:15;;;;;;;11.98;2.70;;;;;;;;;;4987126;28;20028;-85
2024/02/29 07:40:41;;;;;;;15.20;3.92;;;;;;;;;;5004256;28;20034;-84
2024/02/29 07:43:07;;;;;;;;;;;;;;;;;;4980257;28;20033;-86
2024/02/29 07:45:33;;;;;;;17.25;4.53;;;;;;;;;;5002931;28;20420;-86
2024/02/29 07:48:00;;;;;;;16.52;4.80;;;;;;;;;;4980666;28;20049;-82
2024/02/29 07:50:27;;;;;;;14.50;5.13;;;;;;;;;;5003213;28;20060;-87
2024/02/29 07:52:53;;;;;;;13.52;5.07;;;;;;;;;;5029790;28;20033;-87
2024/02/29 07:55:19;;;;;;;10.63;3.78;;;;;;;;;;5019123;28;20037;-87
2024/02/29 07:57:46;;;;;;;11.48;3.75;;;;;;;;;;5000991;28;20481;-88
2024/02/29 08:00:12;;;;;;;11.18;3.78;;;;;;;;;;5000645;28;20032;-88
2024/02/29 08:02:38;;;;;;;;;;;;;;;;;;5003043;28;20056;-88
2024/02/29 08:05:05;;;;;;;10.05;3.15;;;;;;;;;;5005209;28;20286;-88
2024/02/29 08:07:31;;;;;;;10.10;3.10;;;;;;;;;;5000764;28;20029;-89
2024/02/29 08:09:58;;;;;;;9.32;3.53;;;;;;;;;;5010796;28;20612;-88
2024/02/29 08:12:23;;;;;;;;;;;;;;;;;;5022241;28;20034;-89
2024/02/29 08:14:50;;;;;;;12.95;4.50;;;;;;;;;;5008808;28;19913;-88
2024/02/29 08:17:16;;;;;;;11.27;4.43;;;;;;;;;;5009080;28;20029;-89
2024/02/29 08:19:42;;;;;;;14.68;4.28;;;;;;;;;;5004959;28;20887;-88
2024/02/29 08:22:08;;;;;;;;;;;;;;;;;;5023914;28;20112;-88
2024/02/29 08:24:37;;;;;;;13.00;5.07;;;;;;;;;;5032615;28;19913;-88
2024/02/29 08:27:03;;;;;;;12.73;5.20;;;;;;;;;;5027522;28;20605;-88
2024/02/29 08:29:29;;;;;;;10.38;4.30;;;;;;;;;;5007931;28;20100;-88
2024/02/29 08:31:55;;;;;;;;;;;;;;;;;;5008229;28;20565;-88
2024/02/29 08:34:21;;;;;;;10.60;4.22;;;;;;;;;;5005520;28;19923;-88
2024/02/29 08:36:49;;;;;;;10.20;3.30;;;;;;;;;;5003654;28;20478;-88
2024/02/29 08:39:17;;;;;;;10.35;3.35;;;;;;;;;;5005502;28;20036;-88
2024/02/29 08:41:44;;;;;;;7.60;2.78;;;;;;;;;;5002323;28;20120;-88
2024/02/29 08:44:11;;;;;;;8.40;2.60;;;;;;;;;;5000639;28;20514;-88
2024/02/29 08:46:37;;;;;;;8.50;2.70;;;;;;;;;;5022176;28;20037;-88
2024/02/29 08:49:03;;;;;;;7.90;2.67;;;;;;;;;;5004603;28;20657;-88
2024/02/29 08:51:29;;;;;;;8.80;3.30;;;;;;;;;;5006126;28;20509;-88
2024/02/29 08:53:55;;;;;;;9.20;3.58;;;;;;;;;;5020525;28;20041;-88
2024/02/29 08:56:21;;;;;;;;;;;;;;;;;;5013989;28;20029;-88
2024/02/29 08:58:47;;;;;;;11.60;3.80;;;;;;;;;;5012448;28;19909;-86
2024/02/29 09:01:13;;;;;;;8.65;3.10;;;;;;;;;;5008522;28;20029;-88
2024/02/29 09:03:39;;;;;;;9.77;2.92;;;;;;;;;;5004244;28;20034;-88
2024/02/29 09:06:05;;;;;;;9.65;2.75;;;;;;;;;;5011962;28;20045;-88
2024/02/29 09:08:32;;;;;;;7.65;2.50;;;;;;;;;;5023926;28;20485;-88
2024/02/29 09:10:58;;;;;;;10.55;2.55;;;;;;;;;;5020906;28;20037;-88
2024/02/29 09:13:24;;;;;;;8.40;2.30;;;;;;;;;;5017638;28;20037;-88
2024/02/29 09:15:50;;;;;;;9.18;2.00;;;;;;;;;;5002675;28;20032;-88
2024/02/29 09:18:16;;;;;;;;;;;;;;;;;;5006529;28;20588;-88
2024/02/29 09:20:42;;;;;;;9.45;1.85;;;;;;;;;;5002573;28;19919;-87
2024/02/29 09:23:08;;;;;;;;;;;;;;;;;;5001184;28;20083;-88
2024/02/29 09:25:34;;;;;;;9.05;1.70;;;;;;;;;;5018362;28;19909;-87
2024/02/29 09:28:00;;;;;;;9.43;1.80;;;;;;;;;;5015517;28;20030;-88
2024/02/29 09:30:27;;;;;;;;;;;;;;;;;;4997766;28;20041;-88
2024/02/29 09:32:55;;;;;;;;;;;;;;;;;;5003322;28;19965;-88
2024/02/29 09:35:21;;;;;;;;;;;;;;;;;;5003899;28;19917;-89
2024/02/29 09:37:47;;;;;;;8.07;2.03;;;;;;;;;;5017809;28;20482;-88
2024/02/29 09:40:15;;;;;;;7.53;1.75;;;;;;;;;;5005623;28;20033;-89
2024/02/29 09:42:44;;;;;;;7.25;1.80;;;;;;;;;;5001614;28;20580;-89
2024/02/29 09:45:11;;;;;;;9.43;1.92;;;;;;;;;;5015279;28;20018;-89
2024/02/29 09:47:39;;;;;;;8.95;2.28;;;;;;;;;;4998538;28;20084;-89
2024/02/29 09:50:05;;;;;;;8.63;2.50;;;;;;;;;;5012115;28;20045;-88
2024/02/29 09:52:34;;;;;;;8.75;1.98;;;;;;;;;;5006965;28;20040;-89
2024/02/29 09:55:04;;;;;;;11.38;2.40;;;;;;;;;;5023975;28;20022;-90
2024/02/29 09:57:31;;;;;;;10.70;2.10;;;;;;;;;;5008585;28;20920;-88
2024/02/29 09:59:58;;;;;;;7.53;1.77;;;;;;;;;;5001182;28;20034;-87
2024/02/29 10:02:24;;;;;;;7.50;1.55;;;;;;;;;;5016404;28;20493;-89
2024/02/29 10:04:50;;;;;;;7.28;1.60;;;;;;;;;;4996513;28;20525;-87
2024/02/29 10:07:16;;;;;;;7.78;1.67;;;;;;;;;;5005765;28;20025;-87
2024/02/29 10:09:43;;;;;;;10.43;1.95;;;;;;;;;;4998795;28;20041;-88
2024/02/29 10:12:14;;;;;;;11.50;1.88;;;;;;;;;;5007867;28;20029;-90
2024/02/29 10:14:40;;;;;;;8.65;1.52;;;;;;;;;;5000864;28;20729;-89
2024/02/29 10:17:07;;;;;;;6.70;1.30;;;;;;;;;;4998512;28;20041;-89
2024/02/29 10:19:33;;;;;;;6.22;1.40;;;;;;;;;;4998712;28;20580;-89
2024/02/29 10:21:59;;;;;;;10.13;1.42;;;;;;;;;;5018781;28;20033;-89
2024/02/29 10:24:25;;;;;;;6.38;1.60;;;;;;;;;;5015196;28;20053;-89
2024/02/29 10:26:51;;;;;;;5.75;1.35;;;;;;;;;;5012855;28;20561;-89
2024/02/29 10:29:18;;;;;;;7.47;1.10;;;;;;;;;;4991873;28;20030;-89
2024/02/29 10:31:44;;;;;;;5.93;1.40;;;;;;;;;;4988589;28;20121;-89
2024/02/29 10:34:11;;;;;;;7.82;1.30;;;;;;;;;;4989093;28;20065;-88
2024/02/29 10:36:37;;;;;;;6.88;1.40;;;;;;;;;;4996299;28;20033;-89
2024/02/29 10:39:03;;;;;;;7.07;2.00;;;;;;;;;;4996225;28;20485;-88
2024/02/29 10:41:34;;;;;;;8.75;2.30;;;;;;;;;;4993181;28;20121;-88
2024/02/29 10:44:03;;;;;;;6.45;1.40;;;;;;;;;;5007499;28;20044;-88
2024/02/29 10:46:30;;;;;;;8.57;1.50;;;;;;;;;;4988053;28;20133;-88
2024/02/29 10:48:57;;;;;;;8.98;1.70;;;;;;;;;;4993581;28;20064;-89
2024/02/29 10:51:24;;;;;;;5.50;1.38;;;;;;;;;;5004933;28;20136;-88
2024/02/29 10:54:10;;;;;;;6.90;1.55;;;;;;;;;;4988815;28;20073;-89
2024/02/29 10:56:37;;;;;;;7.28;1.48;;;;;;;;;;5005935;28;20134;-89
2024/02/29 10:59:05;;;;;;;8.02;1.50;;;;;;;;;;4989003;28;20040;-88
2024/02/29 11:01:31;;;;;;;5.28;1.17;;;;;;;;;;4999511;28;20037;-89
2024/02/29 11:03:58;;;;;;;8.50;1.50;;;;;;;;;;5005905;28;20060;-88
2024/02/29 11:06:25;;;;;;;5.70;1.58;;;;;;;;;;4997456;28;20053;-88
2024/02/29 11:08:52;;;;;;;7.15;1.40;;;;;;;;;;4990293;28;20038;-89
2024/02/29 11:11:25;;;;;;;5.93;1.20;;;;;;;;;;5004541;28;20035;-90
2024/02/29 11:14:01;;;;;;;5.65;1.40;;;;;;;;;;5003482;28;20051;-90
2024/02/29 11:16:28;;;;;;;7.43;1.23;;;;;;;;;;5013432;28;20001;-90
2024/02/29 11:19:02;;;;;;;4.85;1.25;;;;;;;;;;5010925;28;20036;-91
2024/02/29 11:21:31;;;;;;;6.63;1.30;;;;;;;;;;5000237;28;20116;-90
2024/02/29 11:24:20;;;;;;;4.13;1.05;;;;;;;;;;5003643;28;20044;-89
2024/02/29 11:26:47;;;;;;;6.00;1.50;;;;;;;;;;4990128;28;20037;-89
2024/02/29 11:29:18;;;;;;;6.07;1.30;;;;;;;;;;5017291;28;20022;-89
2024/02/29 11:31:48;;;;;;;9.10;1.70;;;;;;;;;;5013180;28;20034;-89
2024/02/29 11:34:18;;;;;;;5.63;1.50;;;;;;;;;;4995249;28;20029;-89
2024/02/29 11:36:48;;;;;;;6.80;1.90;;;;;;;;;;4991933;28;20033;-91
2024/02/29 11:39:20;;;;;;;6.85;1.42;;;;;;;;;;4996801;28;20031;-90
2024/02/29 11:41:47;;;;;;;7.63;1.70;;;;;;;;;;4999676;28;20022;-90
2024/02/29 11:44:13;;;;;;;5.55;1.23;;;;;;;;;;4993781;28;20040;-89
2024/02/29 11:46:46;;;;;;;6.65;1.40;;;;;;;;;;4996996;28;20041;-91
2024/02/29 11:49:18;;;;;;;5.65;1.38;;;;;;;;;;5012801;28;20033;-89
2024/02/29 11:51:45;;;;;;;7.43;1.80;;;;;;;;;;4991089;28;20055;-89
2024/02/29 11:54:17;;;;;;;5.22;1.30;;;;;;;;;;4991703;28;20029;-89
2024/02/29 11:56:43;;;;;;;9.20;2.60;;;;;;;;;;4995923;28;20308;-90
2024/02/29 11:59:10;;;;;;;7.30;1.80;;;;;;;;;;4989405;28;20726;-89
2024/02/29 12:01:37;;;;;;;6.47;1.80;;;;;;;;;;4996965;28;20061;-89
2024/02/29 12:04:04;;;;;;;5.75;1.60;;;;;;;;;;4995128;28;20191;-89
2024/02/29 12:06:31;;;;;;;5.40;1.73;;;;;;;;;;4994926;28;20062;-90
2024/02/29 12:08:57;;;;;;;6.65;1.75;;;;;;;;;;5009346;28;20061;-91
2024/02/29 12:11:23;;;;;;;4.45;1.20;;;;;;;;;;5010923;28;20064;-90
2024/02/29 12:13:50;;;;;;;5.22;1.30;;;;;;;;;;4991062;28;20041;-90
2024/02/29 12:16:16;;;;;;;5.97;1.50;;;;;;;;;;5012562;28;20086;-90
2024/02/29 12:18:42;;;;;;;6.78;1.65;;;;;;;;;;4998482;28;20847;-90
2024/02/29 12:21:09;;;;;;;7.90;1.80;;;;;;;;;;4989750;28;20766;-89
2024/02/29 12:23:35;;;;;;;8.35;2.38;;;;;;;;;;4996955;28;20160;-91
2024/02/29 12:26:12;;;;;;;6.95;2.10;;;;;;;;;;5010996;28;20033;-91
2024/02/29 12:28:38;;;;;;;6.90;1.70;;;;;;;;;;4989974;28;20100;-91
2024/02/29 12:31:06;;;;;;;6.65;1.33;;;;;;;;;;4995418;28;20030;-91
2024/02/29 12:33:32;;;;;;;5.90;1.10;;;;;;;;;;5006801;28;20033;-90
2024/02/29 12:36:00;;;;;;;5.72;1.50;;;;;;;;;;4993392;28;20045;-89
2024/02/29 12:38:27;;;;;;;4.65;1.33;;;;;;;;;;4997702;28;20029;-90
2024/02/29 12:40:54;;;;;;;7.95;2.30;;;;;;;;;;4997255;28;20029;-90
2024/02/29 12:43:21;;;;;;;12.55;3.90;;;;;;;;;;5005223;28;20018;-90
2024/02/29 12:45:47;;;;;;;10.80;3.17;;;;;;;;;;5003115;28;20034;-91
2024/02/29 12:48:13;;;;;;;11.27;2.70;;;;;;;;;;5006384;28;20010;-91
2024/02/29 12:50:40;;;;;;;7.68;2.08;;;;;;;;;;5020288;28;20058;-89
2024/02/29 12:53:06;;;;;;;8.98;2.80;;;;;;;;;;5033449;28;20037;-90
2024/02/29 12:55:32;;;;;;;8.38;2.42;;;;;;;;;;5011145;28;20323;-91
2024/02/29 12:57:58;;;;;;;8.23;2.05;;;;;;;;;;5021211;28;20148;-91
2024/02/29 13:00:25;;;;;;;7.30;2.30;;;;;;;;;;5000545;28;20026;-91
2024/02/29 13:02:52;;;;;;;7.07;2.00;;;;;;;;;;5003371;28;20247;-91
2024/02/29 13:05:21;;;;;;;5.35;1.45;;;;;;;;;;5017911;28;20053;-90
2024/02/29 13:07:48;;;;;;;10.23;1.55;;;;;;;;;;5007275;28;20038;-91
2024/02/29 13:10:14;;;;;;;8.48;1.73;;;;;;;;;;5010607;28;20028;-91
2024/02/29 13:12:43;;;;;;;7.72;3.17;;;;;;;;;;5010059;28;20029;-91
2024/02/29 13:15:10;;;;;;;6.35;2.08;;;;;;;;;;5020406;28;20038;-91
2024/02/29 13:17:36;;;;;;;5.65;1.55;;;;;;;;;;5008559;28;20109;-91
2024/02/29 13:20:02;;;;;;;7.43;1.75;;;;;;;;;;4999141;28;20493;-91
2024/02/29 13:22:28;;;;;;;4.32;1.35;;;;;;;;;;5007120;28;20048;-91
2024/02/29 13:24:54;;;;;;;9.05;2.15;;;;;;;;;;5016153;28;20367;-91
2024/02/29 13:27:20;;;;;;;6.38;1.67;;;;;;;;;;5005990;28;20085;-91
2024/02/29 13:29:46;;;;;;;8.40;1.60;;;;;;;;;;5007578;28;20048;-91
2024/02/29 13:32:13;;;;;;;5.18;1.33;;;;;;;;;;5005092;28;20132;-91
2024/02/29 13:34:39;;;;;;;4.82;1.08;;;;;;;;;;5017500;28;20042;-88
2024/02/29 13:37:05;;;;;;;7.43;1.45;;;;;;;;;;5007197;28;20033;-89
2024/02/29 13:39:31;;;;;;;6.60;1.33;;;;;;;;;;5003817;28;20037;-89
2024/02/29 13:41:57;;;;;;;4.68;0.90;;;;;;;;;;5016185;28;20059;-90
2024/02/29 13:44:23;;;;;;;5.05;1.13;;;;;;;;;;5008890;28;20074;-90
2024/02/29 13:46:49;;;;;;;5.03;1.13;;;;;;;;;;5005714;28;20065;-89
2024/02/29 13:49:15;;;;;;;4.65;1.20;;;;;;;;;;5034023;28;20036;-90
2024/02/29 13:51:42;;;;;;;8.55;1.55;;;;;;;;;;5005939;28;20041;-90
2024/02/29 13:54:08;;;;;;;6.47;1.20;;;;;;;;;;5030335;28;20042;-90
2024/02/29 13:56:34;;;;;;;3.45;1.02;;;;;;;;;;5008567;28;20030;-89
2024/02/29 13:59:00;;;;;;;4.80;1.00;;;;;;;;;;5015265;28;20116;-90
2024/02/29 14:01:26;;;;;;;4.70;1.20;;;;;;;;;;5034531;28;20025;-89
2024/02/29 14:03:52;;;;;;;5.70;1.50;;;;;;;;;;5016629;28;20049;-89
2024/02/29 14:06:18;;;;;;;6.53;1.45;;;;;;;;;;5014337;28;20160;-90
2024/02/29 14:08:45;;;;;;;6.72;1.40;;;;;;;;;;5021731;28;20065;-89
2024/02/29 14:11:11;;;;;;;5.65;1.17;;;;;;;;;;5016129;28;20025;-90
2024/02/29 14:13:37;;;;;;;5.72;1.02;;;;;;;;;;5015595;28;20119;-90
2024/02/29 14:16:05;;;;;;;6.40;1.30;;;;;;;;;;5017978;28;20124;-90
2024/02/29 14:18:33;;;;;;;6.10;1.00;;;;;;;;;;5021210;28;20128;-91
2024/02/29 14:20:59;;;;;;;6.38;1.30;;;;;;;;;;5022397;28;20032;-91
2024/02/29 14:23:26;;;;;;;5.05;1.20;;;;;;;;;;5025800;28;20107;-90
2024/02/29 14:25:52;;;;;;;4.13;1.13;;;;;;;;;;5021167;28;20035;-90
2024/02/29 14:28:18;;;;;;;5.10;1.23;;;;;;;;;;5007289;28;20037;-91
2024/02/29 14:30:45;;;;;;;6.13;1.50;;;;;;;;;;5006514;28;20047;-89
2024/02/29 14:33:11;;;;;;;3.40;1.00;;;;;;;;;;5012389;28;20139;-90
2024/02/29 14:35:37;;;;;;;7.32;1.70;;;;;;;;;;5016444;28;20026;-90
2024/02/29 14:38:03;;;;;;;4.72;1.65;;;;;;;;;;5000182;28;20088;-89
2024/02/29 14:40:30;;;;;;;10.70;1.88;;;;;;;;;;5023561;28;20026;-90
2024/02/29 14:42:56;;;;;;;6.57;1.50;;;;;;;;;;5013396;28;20030;-90